EDT,Max TemperatureF,Mean TemperatureF,Min TemperatureF,Max Dew PointF,MeanDew PointF,Min DewpointF,Max Humidity, Mean Humidity, Min Humidity, Max Sea Level PressureIn, Mean Sea Level PressureIn, Min Sea Level PressureIn, Max VisibilityMiles, Mean VisibilityMiles, Min VisibilityMiles, Max Wind SpeedMPH, Mean Wind SpeedMPH, Max Gust SpeedMPH,PrecipitationIn, CloudCover, Events, WindDirDegrees
2014-4-1,51,37,24,24,21,15,88,61,25,30.16,30.10,30.03,10,10,10,9,4,,0.00,2,,332
2014-4-2,52,34,19,28,21,9,92,63,27,30.11,30.04,29.98,10,10,9,8,2,,0.00,0,,169
2014-4-3,41,30,21,24,20,17,89,64,43,30.19,30.10,30.05,10,10,9,12,3,21,0.00,4,,300
2014-4-4,44,30,15,29,21,12,88,66,38,30.18,30.05,29.89,10,9,3,18,4,30,0.27,3,Rain-Snow,153
2014-4-5,43,37,32,35,30,22,89,78,62,29.87,29.73,29.62,10,8,2,13,8,30,0.08,8,Rain-Snow,292
2014-4-6,46,37,27,23,19,13,81,54,28,30.17,30.02,29.83,10,10,9,18,9,33,0.00,4,Snow,297
2014-4-7,55,38,21,32,24,19,89,58,30,30.24,30.13,29.94,10,10,10,16,4,24,0.00,1,,149
2014-4-8,57,46,37,45,38,31,93,75,62,29.91,29.48,29.26,10,9,4,26,10,37,0.33,8,Rain,184
2014-4-9,42,36,30,34,25,10,86,65,33,29.91,29.63,29.45,10,10,2,16,8,29,0.00,6,Snow,294
2014-4-10,59,39,19,32,18,13,85,47,20,30.06,29.94,29.84,10,10,10,16,4,28,0.00,2,Rain,175
2014-4-11,62,47,30,35,29,25,82,46,25,30.04,29.92,29.79,10,10,10,10,6,18,0.01,4,,276
2014-4-12,60,42,25,30,26,22,92,58,26,30.24,30.12,30.04,10,10,10,12,2,24,0.00,0,,297
2014-4-13,46,38,30,37,32,26,93,83,71,30.30,30.18,29.99,10,9,2,14,4,23,0.24,6,Rain-Snow,142
2014-4-14,79,54,30,50,36,29,100,79,29,30.01,29.89,29.72,10,6,0,21,3,29,0.00,2,Fog,198
2014-4-15,64,48,30,58,46,27,97,84,60,29.77,29.62,29.47,10,6,1,17,8,25,0.76,7,Rain-Snow,231
2014-4-16,30,22,15,27,15,10,89,72,49,30.66,30.13,29.78,10,5,0,16,9,30,0.13,6,Fog-Snow,290
2014-4-17,45,28,10,18,13,7,88,57,30,30.83,30.74,30.64,10,10,10,13,2,17,0.00,0,,156
2014-4-18,50,34,19,25,19,14,89,58,25,30.64,30.44,30.20,10,10,9,15,3,21,0.00,0,,141
2014-4-19,48,35,23,33,27,19,88,68,41,30.44,30.24,30.11,10,10,10,12,3,24,0.00,6,,338
2014-4-20,61,38,17,27,16,4,89,53,12,30.53,30.41,30.25,10,10,10,8,2,,0.00,0,,233
2014-4-21,72,52,32,41,31,26,82,53,22,30.24,30.00,29.80,10,10,5,12,2,18,0.00,6,,227
2014-4-22,71,56,43,49,41,34,96,67,28,29.78,29.57,29.41,10,10,4,17,3,23,0.02,6,Rain,166
2014-4-23,52,45,39,47,38,31,93,79,68,29.63,29.51,29.41,10,10,6,14,6,25,0.02,8,Rain,315
2014-4-24,45,40,35,31,26,24,76,59,49,29.94,29.76,29.62,10,10,10,21,13,36,0.00,7,,327
2014-4-25,59,40,24,30,23,15,89,53,19,30.00,29.92,29.83,10,10,10,10,3,18,0.00,0,,349
2014-4-26,46,41,37,38,34,27,93,76,49,29.86,29.80,29.76,10,10,6,14,6,22,0.09,8,Rain,150
2014-4-27,46,38,30,40,35,28,97,86,66,30.08,29.94,29.82,10,8,2,13,4,28,0.13,7,Rain,348
2014-4-28,52,44,36,40,36,32,89,72,54,30.29,30.15,30.04,10,10,8,12,7,20,0.01,8,Rain,9
2014-4-29,57,42,30,36,31,25,92,65,31,30.52,30.41,30.28,10,10,10,15,6,26,0.01,3,,131
2014-4-30,48,41,36,35,33,31,87,77,61,30.53,30.40,30.20,10,10,5,16,11,24,0.13,8,Rain,146